createdAt,value
2022-11-01T00:00:38.840Z,5.22
2022-11-01T00:01:40.893Z,6.33
2022-11-01T00:02:43.104Z,8.10
2022-11-01T00:03:45.084Z,7.20
2022-11-01T00:04:47.319Z,6.33
2022-11-01T00:05:49.025Z,5.00
2022-11-01T00:06:51.510Z,5.67
2022-11-01T00:07:53.501Z,5.10
2022-11-01T00:08:55.155Z,5.89
2022-11-01T00:09:56.778Z,2.78
2022-11-01T00:11:05.527Z,8.11
2022-11-01T00:12:07.813Z,8.20
2022-11-01T00:13:10.075Z,9.20
2022-11-01T00:14:17.406Z,0.70
2022-11-01T00:15:19.718Z,5.60
2022-11-01T00:16:22.517Z,5.70
2022-11-01T00:17:24.305Z,6.60
2022-11-01T00:18:26.741Z,5.78
2022-11-01T00:19:29.090Z,7.00
2022-11-01T00:20:31.188Z,7.20
2022-11-01T00:21:32.848Z,6.33
2022-11-01T00:22:34.631Z,8.00
2022-11-01T00:23:37.099Z,6.00
2022-11-01T00:24:39.119Z,6.00
2022-11-01T00:25:41.482Z,6.44
2022-11-01T00:26:43.481Z,6.30
2022-11-01T00:27:45.383Z,6.80
2022-11-01T00:28:47.737Z,9.00
2022-11-01T00:29:49.591Z,5.80
2022-11-01T00:30:52.720Z,7.10
2022-11-01T00:31:54.679Z,10.64
2022-11-01T00:32:57.267Z,8.90
2022-11-01T00:33:59.054Z,7.60
2022-11-01T00:35:00.690Z,10.67
2022-11-01T00:36:02.980Z,6.11
2022-11-01T00:37:04.685Z,10.50
2022-11-01T00:38:06.635Z,7.11
2022-11-01T00:39:13.870Z,6.20
2022-11-01T00:40:15.888Z,7.00
2022-11-01T00:41:17.925Z,5.00
2022-11-01T00:42:20.353Z,8.30
2022-11-01T00:43:22.614Z,1.20
2022-11-01T00:44:24.357Z,5.40
2022-11-01T00:45:26.571Z,5.56
2022-11-01T00:46:28.833Z,6.30
2022-11-01T00:47:30.825Z,4.80
2022-11-01T00:48:32.673Z,9.22
2022-11-01T00:49:34.465Z,10.56
2022-11-01T00:50:36.764Z,14.11
2022-11-01T00:51:38.690Z,12.00
2022-11-01T00:52:40.694Z,12.70
2022-11-01T00:53:42.647Z,10.33
2022-11-01T00:54:44.320Z,13.33
2022-11-01T00:55:46.547Z,13.78
2022-11-01T00:56:48.753Z,11.50
2022-11-01T00:57:50.654Z,9.20
2022-11-01T00:58:52.411Z,8.00
2022-11-01T01:00:56.361Z,7.89
2022-11-01T01:01:58.311Z,8.60
2022-11-01T01:03:00.680Z,8.00
2022-11-01T01:04:02.952Z,6.30
2022-11-01T01:05:06.154Z,11.60
2022-11-01T01:06:08.881Z,13.40
2022-11-01T01:07:10.974Z,13.33
2022-11-01T01:08:12.915Z,6.50
2022-11-01T01:09:15.900Z,11.00
2022-11-01T01:10:18.632Z,10.50
2022-11-01T01:11:20.837Z,12.90
2022-11-01T01:12:24.400Z,5.00
2022-11-01T01:13:26.540Z,7.80
2022-11-01T01:14:32.299Z,8.50
2022-11-01T01:15:32.964Z,10.60
2022-11-01T01:16:34.915Z,12.40
2022-11-01T01:17:36.823Z,10.78
2022-11-01T01:18:38.907Z,7.67
2022-11-01T01:19:42.395Z,7.50
2022-11-01T01:20:44.549Z,7.67
2022-11-01T01:21:46.538Z,7.00
2022-11-01T01:22:48.727Z,5.90
2022-11-01T01:23:50.471Z,9.00
2022-11-01T01:24:52.443Z,3.78
2022-11-01T01:25:54.359Z,6.33
2022-11-01T01:26:56.639Z,5.44
2022-11-01T01:27:58.539Z,5.40
2022-11-01T01:29:00.459Z,3.33
2022-11-01T01:30:03.875Z,6.33
2022-11-01T01:31:07.746Z,3.50
2022-11-01T01:32:15.254Z,7.30
2022-11-01T01:33:17.184Z,4.80
2022-11-01T01:34:19.257Z,3.70
2022-11-01T01:35:20.916Z,2.00
2022-11-01T01:36:22.947Z,5.11
2022-11-01T01:37:25.177Z,6.78
2022-11-01T01:38:27.688Z,4.90
2022-11-01T01:39:29.629Z,6.20
2022-11-01T01:40:32.785Z,8.56
2022-11-01T01:41:35.106Z,8.00
2022-11-01T01:42:39.191Z,7.50
2022-11-01T01:43:43.441Z,9.70
2022-11-01T01:44:57.835Z,7.80
2022-11-01T01:45:59.578Z,11.10
2022-11-01T01:47:01.716Z,14.67
2022-11-01T01:48:10.674Z,14.60
2022-11-01T01:49:12.626Z,16.80
2022-11-01T01:50:30.364Z,13.60
2022-11-01T01:51:32.676Z,19.00
2022-11-01T01:52:55.235Z,17.00
2022-11-01T01:53:58.238Z,23.10
2022-11-01T01:55:03.613Z,25.20
2022-11-01T01:56:12.081Z,22.30
2022-11-01T01:57:13.908Z,26.50
2022-11-01T01:58:19.214Z,23.67
2022-11-01T01:59:21.167Z,30.70
2022-11-01T02:00:23.366Z,30.40
2022-11-01T02:01:26.731Z,33.30
2022-11-01T02:02:29.105Z,31.40
2022-11-01T02:03:33.445Z,31.33
2022-11-01T02:04:39.036Z,30.00
2022-11-01T02:05:53.436Z,32.90
2022-11-01T02:06:57.294Z,34.30
2022-11-01T02:08:00.938Z,34.80
2022-11-01T02:09:06.144Z,39.20
2022-11-01T02:10:10.837Z,34.60
2022-11-01T02:11:15.113Z,33.20
2022-11-01T02:12:17.175Z,37.50
2022-11-01T02:13:19.275Z,30.22
2022-11-01T02:14:23.986Z,36.40
2022-11-01T02:15:30.072Z,36.30
2022-11-01T02:17:05.589Z,25.90
2022-11-01T02:18:18.187Z,28.90
2022-11-01T02:19:57.209Z,21.10
2022-11-01T02:21:24.290Z,21.10
2022-11-01T02:22:39.113Z,20.50
2022-11-01T02:24:16.935Z,22.40
2022-11-01T02:25:49.125Z,16.10
2022-11-01T02:27:06.848Z,18.60
2022-11-01T02:28:44.864Z,14.90
2022-11-01T02:30:08.679Z,19.50
2022-11-01T02:31:33.954Z,19.60
2022-11-01T02:32:39.829Z,17.20
2022-11-01T02:33:45.529Z,21.10
2022-11-01T02:34:59.975Z,20.80
2022-11-01T02:36:11.410Z,16.30
2022-11-01T02:37:19.832Z,24.90
2022-11-01T02:38:40.548Z,25.20
2022-11-01T02:39:46.028Z,20.50
2022-11-01T02:40:57.952Z,25.20
2022-11-01T02:42:07.177Z,16.00
2022-11-01T02:43:19.163Z,21.90
2022-11-01T02:44:27.420Z,24.00
2022-11-01T02:45:32.925Z,23.50
2022-11-01T02:46:44.430Z,28.10
2022-11-01T02:47:46.290Z,21.00
2022-11-01T02:48:49.301Z,14.33
2022-11-01T02:49:54.339Z,10.64
2022-11-01T02:50:57.994Z,15.20
2022-11-01T02:52:02.243Z,9.10
2022-11-01T02:53:04.885Z,8.80
2022-11-01T02:54:09.537Z,8.00
2022-11-01T02:55:15.122Z,8.90
2022-11-01T02:56:18.860Z,7.10
2022-11-01T02:57:30.269Z,7.40
2022-11-01T02:58:32.305Z,5.90
2022-11-01T02:59:48.244Z,5.56
2022-11-01T03:00:51.049Z,1.20
2022-11-01T03:02:00.059Z,5.73
2022-11-01T03:03:22.543Z,4.30
2022-11-01T03:04:24.594Z,5.80
2022-11-01T03:05:33.981Z,5.78
2022-11-01T03:06:42.232Z,2.40
2022-11-01T03:07:47.751Z,5.80
2022-11-01T03:08:53.256Z,6.20
2022-11-01T03:09:55.106Z,7.20
2022-11-01T03:11:09.952Z,5.33
2022-11-01T03:12:21.589Z,3.70
2022-11-01T03:13:36.169Z,2.90
2022-11-01T03:14:45.531Z,4.40
2022-11-01T03:15:51.017Z,6.70
2022-11-01T03:17:08.910Z,7.00
2022-11-01T03:18:15.042Z,4.80
2022-11-01T03:19:38.829Z,4.00
2022-11-01T03:20:44.803Z,6.50
2022-11-01T03:22:11.436Z,3.20
2022-11-01T03:23:17.536Z,4.00
2022-11-01T03:24:25.808Z,4.40
2022-11-01T03:25:34.366Z,4.50
2022-11-01T03:26:38.522Z,3.00
2022-11-01T03:27:45.201Z,2.30
2022-11-01T03:28:50.718Z,4.90
2022-11-01T03:30:02.053Z,3.00
2022-11-01T03:31:13.591Z,3.20
2022-11-01T03:32:18.816Z,5.10
2022-11-01T03:33:23.840Z,2.40
2022-11-01T03:34:25.809Z,3.90
2022-11-01T03:35:32.296Z,4.18
2022-11-01T03:36:37.989Z,2.80
2022-11-01T03:37:42.602Z,2.90
2022-11-01T03:40:04.035Z,4.70
2022-11-01T03:41:09.535Z,4.20
2022-11-01T03:42:15.492Z,3.90
2022-11-01T03:43:20.494Z,4.60
2022-11-01T03:44:22.920Z,3.30
2022-11-01T03:45:26.310Z,5.60
2022-11-01T03:46:28.545Z,3.40
2022-11-01T03:47:30.788Z,2.90
2022-11-01T03:48:33.155Z,3.80
2022-11-01T03:49:34.981Z,3.80
2022-11-01T03:50:37.064Z,3.70
2022-11-01T03:51:39.308Z,4.56
2022-11-01T03:52:42.193Z,5.10
2022-11-01T03:53:44.205Z,9.18
2022-11-01T03:54:47.234Z,7.70
2022-11-01T03:55:49.958Z,4.27
2022-11-01T03:56:52.941Z,6.36
2022-11-01T03:57:58.926Z,4.45
2022-11-01T03:59:00.910Z,7.30
2022-11-01T04:00:03.860Z,6.11
2022-11-01T04:01:09.916Z,7.20
2022-11-01T04:02:12.033Z,5.80
2022-11-01T04:03:13.786Z,7.78
2022-11-01T04:04:15.716Z,7.44
2022-11-01T04:05:18.635Z,7.56
2022-11-01T04:06:20.623Z,7.40
2022-11-01T04:07:22.226Z,5.67
2022-11-01T04:08:24.070Z,6.33
2022-11-01T04:09:26.235Z,4.00
2022-11-01T04:10:28.944Z,6.40
2022-11-01T04:11:30.818Z,8.30
2022-11-01T04:12:32.753Z,5.67
2022-11-01T04:13:34.481Z,4.00
2022-11-01T04:14:36.120Z,7.22
2022-11-01T04:15:37.972Z,6.11
2022-11-01T04:16:40.261Z,6.50
2022-11-01T04:17:42.088Z,5.56
2022-11-01T04:18:44.031Z,7.00
2022-11-01T04:19:45.635Z,7.00
2022-11-01T04:20:48.015Z,3.33
2022-11-01T04:21:49.934Z,8.40
2022-11-01T04:22:51.830Z,4.90
2022-11-01T04:23:54.043Z,10.44
2022-11-01T04:24:56.195Z,8.40
2022-11-01T04:25:58.998Z,8.00
2022-11-01T04:27:01.083Z,7.00
2022-11-01T04:28:03.325Z,7.60
2022-11-01T04:29:05.679Z,6.40
2022-11-01T04:30:08.397Z,5.00
2022-11-01T04:31:10.682Z,4.90
2022-11-01T04:32:12.656Z,8.60
2022-11-01T04:33:15.101Z,5.78
2022-11-01T04:34:17.249Z,7.20
2022-11-01T04:35:20.111Z,5.90
2022-11-01T04:36:22.490Z,5.64
2022-11-01T04:37:24.166Z,7.80
2022-11-01T04:38:25.885Z,7.89
2022-11-01T04:39:27.604Z,6.11
2022-11-01T04:40:30.046Z,5.00
2022-11-01T04:41:31.965Z,7.70
2022-11-01T04:42:34.579Z,3.33
2022-11-01T04:43:36.551Z,6.00
2022-11-01T04:44:38.242Z,7.33
2022-11-01T04:45:40.465Z,8.11
2022-11-01T04:46:42.568Z,7.30
2022-11-01T04:47:44.405Z,7.11
2022-11-01T04:48:46.145Z,4.78
2022-11-01T04:49:47.768Z,8.33
2022-11-01T04:50:49.711Z,6.00
2022-11-01T04:51:51.354Z,6.22
2022-11-01T04:52:53.112Z,7.44
2022-11-01T04:53:55.907Z,5.00
2022-11-01T04:54:58.279Z,10.00
2022-11-01T04:56:02.132Z,7.50
2022-11-01T04:57:04.071Z,5.30
2022-11-01T04:58:05.980Z,3.89
2022-11-01T04:59:07.863Z,7.70
2022-11-01T05:00:12.531Z,8.80
2022-11-01T05:01:15.020Z,9.00
2022-11-01T05:02:19.469Z,3.60
2022-11-01T05:03:21.519Z,8.30
2022-11-01T05:04:23.324Z,10.67
2022-11-01T05:05:25.186Z,8.00
2022-11-01T05:06:27.702Z,11.20
2022-11-01T05:07:29.387Z,10.80
2022-11-01T05:08:31.232Z,12.56
2022-11-01T05:09:33.372Z,9.00
2022-11-01T05:10:37.655Z,12.00
2022-11-01T05:11:40.670Z,10.50
2022-11-01T05:12:42.435Z,13.27
2022-11-01T05:13:44.066Z,11.00
2022-11-01T05:14:45.826Z,11.67
2022-11-01T05:16:13.671Z,10.33
2022-11-01T05:16:57.142Z,6.40
2022-11-01T05:17:58.977Z,9.70
2022-11-01T05:19:00.623Z,10.89
2022-11-01T05:20:02.604Z,12.89
2022-11-01T05:21:04.489Z,11.00
2022-11-01T05:22:06.227Z,15.11
2022-11-01T05:23:08.722Z,11.89
2022-11-01T05:24:10.417Z,10.90
2022-11-01T05:25:12.193Z,7.89
2022-11-01T05:26:14.289Z,16.30
2022-11-01T05:27:16.047Z,18.22
2022-11-01T05:28:17.779Z,25.22
2022-11-01T05:29:24.835Z,16.10
2022-11-01T05:30:23.936Z,13.80
2022-11-01T05:31:25.874Z,14.56
2022-11-01T05:32:28.076Z,16.22
2022-11-01T05:33:29.959Z,14.90
2022-11-01T05:34:31.762Z,8.11
2022-11-01T05:35:35.503Z,11.11
2022-11-01T05:36:38.694Z,16.80
2022-11-01T05:37:40.443Z,14.50
2022-11-01T05:38:42.166Z,13.89
2022-11-01T05:39:43.892Z,15.33
2022-11-01T05:40:47.038Z,11.33
2022-11-01T05:41:49.135Z,11.50
2022-11-01T05:42:50.976Z,12.00
2022-11-01T05:43:52.626Z,13.22
2022-11-01T05:44:54.851Z,12.80
2022-11-01T05:45:56.480Z,13.33
2022-11-01T05:46:58.202Z,9.11
2022-11-01T05:48:04.243Z,14.22
2022-11-01T05:49:06.385Z,6.10
2022-11-01T05:50:11.045Z,11.40
2022-11-01T05:51:12.776Z,14.40
2022-11-01T05:52:14.396Z,13.00
2022-11-01T05:53:16.568Z,12.44
2022-11-01T05:54:18.375Z,11.90
2022-11-01T05:55:20.124Z,13.00
2022-11-01T05:56:22.537Z,10.44
2022-11-01T05:57:25.584Z,11.30
2022-11-01T05:58:30.965Z,12.30
2022-11-01T05:59:33.006Z,9.80
2022-11-01T06:00:35.187Z,10.67
2022-11-01T06:01:37.268Z,10.70
2022-11-01T06:02:39.286Z,4.20
2022-11-01T06:03:40.992Z,12.56
2022-11-01T06:04:44.014Z,11.56
2022-11-01T06:05:45.875Z,10.10
2022-11-01T06:06:48.727Z,9.56
2022-11-01T06:07:51.092Z,9.60
2022-11-01T06:08:53.860Z,8.30
2022-11-01T06:09:55.677Z,13.10
2022-11-01T06:11:03.619Z,7.70
2022-11-01T06:12:05.658Z,12.40
2022-11-01T06:13:08.063Z,8.89
2022-11-01T06:14:10.272Z,9.50
2022-11-01T06:15:12.274Z,9.60
2022-11-01T06:16:14.865Z,11.20
2022-11-01T06:17:16.822Z,9.78
2022-11-01T06:18:18.563Z,11.22
2022-11-01T06:19:20.215Z,9.89
2022-11-01T06:20:22.080Z,8.56
2022-11-01T06:21:27.598Z,10.00
2022-11-01T06:22:27.617Z,9.10
2022-11-01T06:23:29.368Z,7.78
2022-11-01T06:24:31.039Z,11.44
2022-11-01T06:25:33.335Z,8.22
2022-11-01T06:26:35.314Z,8.40
2022-11-01T06:27:37.054Z,8.11
2022-11-01T06:28:39.016Z,9.78
2022-11-01T06:29:40.868Z,12.67
2022-11-01T06:30:42.681Z,9.33
2022-11-01T06:31:44.519Z,9.78
2022-11-01T06:32:46.665Z,8.78
2022-11-01T06:33:49.696Z,15.20
2022-11-01T11:10:49.090Z,3.60
2022-11-01T11:11:54.472Z,4.70
2022-11-01T11:13:00.229Z,5.80
2022-11-01T11:14:05.830Z,2.10
2022-11-01T11:15:17.645Z,2.50
2022-11-01T11:16:36.013Z,2.50
2022-11-01T11:17:40.332Z,2.20
2022-11-01T11:18:45.823Z,4.00
2022-11-01T11:19:50.814Z,8.40
2022-11-01T11:21:07.404Z,7.10
2022-11-01T11:22:09.917Z,4.90
2022-11-01T11:23:12.201Z,0.20
2022-11-01T11:24:35.982Z,1.90
2022-11-01T11:25:38.326Z,1.00
2022-11-01T11:27:48.338Z,2.67
2022-11-01T11:28:56.320Z,2.00
2022-11-01T11:30:01.463Z,0.30
2022-11-01T11:31:29.263Z,1.50
2022-11-01T11:32:36.890Z,1.00
2022-11-01T11:33:41.150Z,1.80
2022-11-01T11:34:44.536Z,1.70
2022-11-01T11:35:58.590Z,1.00
2022-11-01T11:37:02.920Z,1.10
2022-11-01T11:38:07.169Z,1.00
2022-11-01T11:39:27.349Z,0.70
2022-11-01T11:40:42.473Z,1.20
2022-11-01T11:41:45.459Z,1.20
2022-11-01T11:42:50.733Z,1.90
2022-11-01T11:43:53.473Z,2.30
2022-11-01T11:44:58.947Z,1.80
2022-11-01T11:46:16.182Z,1.00
2022-11-01T11:47:21.709Z,2.50
2022-11-01T11:48:23.547Z,1.00
2022-11-01T11:49:26.992Z,3.22
2022-11-01T11:50:31.918Z,2.00
2022-11-01T11:51:36.259Z,5.70
2022-11-01T11:52:38.943Z,5.00
2022-11-01T11:53:41.805Z,4.55
2022-11-01T11:54:45.157Z,5.18
2022-11-01T11:55:58.401Z,1.50
2022-11-01T11:57:26.776Z,2.40
2022-11-01T11:58:42.006Z,2.00
2022-11-01T11:59:47.776Z,2.00
2022-11-01T12:00:53.923Z,1.90
2022-11-01T12:02:01.834Z,1.80
2022-11-01T12:03:07.396Z,1.60
2022-11-01T12:04:13.323Z,2.30
2022-11-01T12:05:18.931Z,1.30
2022-11-01T12:06:27.359Z,2.20
2022-11-01T12:07:35.976Z,1.40
2022-11-01T12:08:44.223Z,3.80
2022-11-01T12:09:47.781Z,5.40
2022-11-01T12:10:54.177Z,2.80
2022-11-01T12:11:56.634Z,1.70
2022-11-01T12:13:03.947Z,3.40
2022-11-01T12:14:19.430Z,2.50
2022-11-01T12:15:30.992Z,3.60
2022-11-01T12:16:41.194Z,2.90
2022-11-01T12:17:45.731Z,2.00
2022-11-01T12:18:53.633Z,2.30
2022-11-01T12:20:03.630Z,3.00
2022-11-01T12:21:09.121Z,1.50
2022-11-01T12:22:12.397Z,2.60
2022-11-01T12:23:17.879Z,1.20
2022-11-01T12:24:26.176Z,2.40
2022-11-01T12:25:28.829Z,2.90
2022-11-01T12:26:33.963Z,2.27
2022-11-01T12:27:36.922Z,2.90
2022-11-01T12:30:13.016Z,2.70
2022-11-01T12:31:18.328Z,2.60
2022-11-01T12:32:25.154Z,3.00
2022-11-01T12:33:37.711Z,2.60
2022-11-01T12:34:46.118Z,3.20
2022-11-01T12:35:50.174Z,3.40
2022-11-01T12:36:59.053Z,3.60
2022-11-01T12:38:13.630Z,3.50
2022-11-01T12:39:22.347Z,3.60
2022-11-01T12:40:28.073Z,4.20
2022-11-01T12:41:48.621Z,3.20
2022-11-01T12:43:00.450Z,3.50
2022-11-01T12:44:15.392Z,3.70
2022-11-01T12:45:33.233Z,3.40
2022-11-01T12:46:57.504Z,4.90
2022-11-01T12:48:09.602Z,3.10
2022-11-01T12:49:29.968Z,2.50
2022-11-01T12:50:39.063Z,3.50
2022-11-01T12:51:47.830Z,2.00
2022-11-01T12:52:58.962Z,2.70
2022-11-01T12:54:17.317Z,2.10
2022-11-01T12:55:40.125Z,5.10
2022-11-01T12:56:42.198Z,2.80
2022-11-01T12:57:44.333Z,3.40
2022-11-01T12:58:46.491Z,4.10
2022-11-01T12:59:48.507Z,4.80
2022-11-01T13:01:14.611Z,3.10
2022-11-01T13:03:55.615Z,4.10
2022-11-01T13:05:01.195Z,3.50
2022-11-01T13:06:42.188Z,2.60
2022-11-01T13:07:57.542Z,3.30
2022-11-01T13:09:03.224Z,2.60
2022-11-01T13:10:30.354Z,1.60
2022-11-01T13:11:45.573Z,3.00
2022-11-01T13:13:00.867Z,2.50
2022-11-01T13:14:19.292Z,3.00
2022-11-01T13:15:31.574Z,3.90
2022-11-01T13:16:40.824Z,5.60
2022-11-01T13:17:49.125Z,1.80
2022-11-01T13:19:04.101Z,3.00
2022-11-01T13:20:25.027Z,4.10
2022-11-01T13:21:39.706Z,4.30
2022-11-01T13:23:05.126Z,4.40
2022-11-01T13:24:32.776Z,2.10
2022-11-01T13:25:44.081Z,3.30
2022-11-01T13:26:53.384Z,3.00
2022-11-01T13:28:08.843Z,2.70
2022-11-01T13:29:20.296Z,3.30
2022-11-01T13:30:22.635Z,2.70
2022-11-01T13:31:53.018Z,2.30
2022-11-01T13:33:02.323Z,3.50
2022-11-01T13:34:20.322Z,2.30
2022-11-01T13:35:35.350Z,3.50
2022-11-01T13:36:50.115Z,3.70
2022-11-01T13:38:08.064Z,3.70
2022-11-01T13:39:16.680Z,3.80
2022-11-01T13:40:22.343Z,3.80
2022-11-01T13:41:37.493Z,6.50
2022-11-01T13:42:43.010Z,5.00
2022-11-01T13:44:00.531Z,3.80
2022-11-01T13:45:21.460Z,2.00
2022-11-01T13:46:43.880Z,3.30
2022-11-01T13:49:23.697Z,4.70
2022-11-01T13:50:50.905Z,3.00
2022-11-01T13:51:56.484Z,4.20
2022-11-01T13:53:14.300Z,2.70
2022-11-01T13:54:29.813Z,3.90
2022-11-01T13:55:44.310Z,4.60
2022-11-01T13:56:50.998Z,3.60
2022-11-01T13:57:53.445Z,5.00
2022-11-01T13:58:55.822Z,2.80
2022-11-01T14:00:01.264Z,4.60
2022-11-01T14:01:29.335Z,4.40
2022-11-01T14:02:34.884Z,5.60
2022-11-01T14:03:37.362Z,4.70
2022-11-01T14:04:40.535Z,7.90
2022-11-01T14:05:45.035Z,6.18
2022-11-01T14:07:05.774Z,3.80
2022-11-01T14:08:28.081Z,7.40
2022-11-01T14:09:31.701Z,8.10
2022-11-01T14:10:37.350Z,10.50
2022-11-01T14:11:45.710Z,11.70
2022-11-01T14:13:08.716Z,14.50
2022-11-01T14:14:33.389Z,15.10
2022-11-01T14:16:48.346Z,15.80
2022-11-01T14:17:53.803Z,18.60
2022-11-01T14:19:05.292Z,19.80
2022-11-01T14:20:11.842Z,21.20
2022-11-01T14:21:23.284Z,17.70
2022-11-01T14:22:27.921Z,20.10
2022-11-01T14:23:33.479Z,22.40
2022-11-01T14:24:38.959Z,14.70
2022-11-01T14:25:40.809Z,19.50
2022-11-01T14:27:01.479Z,22.33
2022-11-01T14:28:19.668Z,25.10
2022-11-01T14:29:21.795Z,22.00
2022-11-01T14:30:27.274Z,25.50
2022-11-01T14:31:31.026Z,19.60
2022-11-01T14:32:33.157Z,23.00
2022-11-01T14:33:35.657Z,21.30
2022-11-01T14:34:39.650Z,22.40
2022-11-01T14:35:44.799Z,22.10
2022-11-01T14:36:49.757Z,15.70
2022-11-01T14:37:55.085Z,19.10
2022-11-01T14:39:20.458Z,16.30
2022-11-01T14:40:34.853Z,19.60
2022-11-01T14:41:39.187Z,19.50
2022-11-01T19:36:46.338Z,37.80
2022-11-01T19:37:53.687Z,31.30
2022-11-01T19:38:56.226Z,28.60
2022-11-01T19:39:58.563Z,26.67
2022-11-01T19:41:00.968Z,39.30
2022-11-01T19:42:16.151Z,41.45
2022-11-01T19:43:24.421Z,28.30
2022-11-01T19:44:29.336Z,33.70
2022-11-01T19:45:32.886Z,34.30
2022-11-01T19:46:35.711Z,44.00
2022-11-01T19:47:44.669Z,33.73
2022-11-01T19:48:48.276Z,33.00
2022-11-01T19:49:50.414Z,36.20
2022-11-01T19:50:52.916Z,33.40
2022-11-01T19:53:28.067Z,35.70
2022-11-01T19:54:34.892Z,38.90
2022-11-01T19:55:47.176Z,38.30
2022-11-01T19:56:49.462Z,42.40
2022-11-01T19:57:54.810Z,26.30
2022-11-01T19:58:58.582Z,37.20
2022-11-01T20:00:18.708Z,39.50
2022-11-01T20:01:38.891Z,38.70
2022-11-01T20:02:41.069Z,27.90
2022-11-01T20:03:52.894Z,35.20
2022-11-01T20:04:59.991Z,31.20
2022-11-01T20:06:02.655Z,36.80
2022-11-01T20:07:14.051Z,29.00
2022-11-01T20:08:19.785Z,29.00
2022-11-01T20:09:26.178Z,35.00
2022-11-01T20:10:29.843Z,31.10
2022-11-01T20:11:32.949Z,32.60
2022-11-01T20:12:35.995Z,31.36
2022-11-01T20:13:38.091Z,37.50
2022-11-01T20:14:40.089Z,32.60
2022-11-01T20:15:42.810Z,27.00
2022-11-01T20:16:46.297Z,31.60
2022-11-01T20:17:48.409Z,25.10
2022-11-01T20:18:50.428Z,29.80
2022-11-01T20:19:52.152Z,34.11
2022-11-01T20:20:54.446Z,28.89
2022-11-01T20:21:56.626Z,25.80
2022-11-01T20:23:20.323Z,19.90
2022-11-01T20:24:02.995Z,26.80
2022-11-01T20:25:06.537Z,32.80
2022-11-01T20:26:09.658Z,32.50
2022-11-01T20:27:11.562Z,28.60
2022-11-01T20:28:13.411Z,26.67
2022-11-01T20:29:15.735Z,29.22
2022-11-01T20:30:18.737Z,30.60
2022-11-01T20:31:20.852Z,22.40
2022-11-01T20:32:24.252Z,30.20
2022-11-01T20:33:27.727Z,30.10
2022-11-01T20:34:29.713Z,32.70
2022-11-01T20:35:31.693Z,21.00
2022-11-01T20:36:33.748Z,26.60
2022-11-01T20:37:36.728Z,29.60
2022-11-01T20:38:41.835Z,23.64
2022-11-01T20:39:44.441Z,28.20
2022-11-01T20:40:46.699Z,23.10
2022-11-01T20:41:48.626Z,27.10
2022-11-01T20:42:52.284Z,22.67
2022-11-01T20:43:56.820Z,25.30
2022-11-01T20:44:58.929Z,26.40
2022-11-01T20:46:00.864Z,26.33
2022-11-01T20:47:03.065Z,28.60
2022-11-01T20:48:06.612Z,24.80
2022-11-01T20:49:08.782Z,34.10
2022-11-01T20:50:13.252Z,29.20
2022-11-01T20:51:15.236Z,22.10
2022-11-01T20:52:38.690Z,22.67
2022-11-01T20:53:21.530Z,18.10
2022-11-01T20:54:24.460Z,27.50
2022-11-01T20:55:27.329Z,27.89
2022-11-01T20:56:30.086Z,23.80
2022-11-01T20:57:31.997Z,26.60
2022-11-01T20:58:33.993Z,23.60
2022-11-01T20:59:35.779Z,26.78
2022-11-01T21:00:38.431Z,25.80
2022-11-01T21:01:40.536Z,23.78
2022-11-01T21:02:42.526Z,23.20
2022-11-01T21:03:44.999Z,24.22
2022-11-01T21:04:53.751Z,21.80
2022-11-01T21:05:55.718Z,22.30
2022-11-01T21:06:57.698Z,21.00
2022-11-01T21:08:11.911Z,24.56
2022-11-01T21:09:35.999Z,24.90
2022-11-01T21:10:40.216Z,25.90
2022-11-01T21:11:43.610Z,27.10
2022-11-01T21:12:48.805Z,23.30
2022-11-01T21:13:51.381Z,28.00
2022-11-01T21:14:54.393Z,22.10
2022-11-01T21:16:00.102Z,21.20
2022-11-01T21:18:19.905Z,32.70
2022-11-01T21:19:26.025Z,29.50
2022-11-01T21:20:29.287Z,25.00
2022-11-01T21:21:46.252Z,25.70
2022-11-01T21:22:43.765Z,12.80
2022-11-01T21:23:46.116Z,24.40
2022-11-01T21:24:51.063Z,26.40
2022-11-01T21:25:56.732Z,28.50
2022-11-01T21:27:11.592Z,21.20
2022-11-01T21:29:44.998Z,25.00
2022-11-01T21:30:46.847Z,18.10
2022-11-01T21:31:49.756Z,24.56
2022-11-01T21:32:53.484Z,22.40
2022-11-01T21:34:02.873Z,20.60
2022-11-01T21:35:23.582Z,24.50
2022-11-01T21:36:40.445Z,23.70
2022-11-01T21:37:43.165Z,25.10
2022-11-01T21:38:48.450Z,21.91
2022-11-01T21:40:03.195Z,28.90
2022-11-01T21:41:14.272Z,27.80
2022-11-01T21:42:31.877Z,23.90
2022-11-01T21:43:33.750Z,16.80
2022-11-01T21:44:41.581Z,23.89
2022-11-01T21:45:46.034Z,22.10
2022-11-01T21:46:51.761Z,20.50
2022-11-01T21:47:55.407Z,32.80
2022-11-01T21:48:59.949Z,20.10
2022-11-01T21:50:01.986Z,29.20
2022-11-01T21:51:04.317Z,18.22
2022-11-01T21:52:08.604Z,28.90
2022-11-01T21:53:10.568Z,28.50
2022-11-01T21:54:14.469Z,23.78
2022-11-01T21:55:16.420Z,24.40
2022-11-01T21:56:18.615Z,23.80
2022-11-01T21:57:21.138Z,20.00
2022-11-01T21:58:23.063Z,22.10
2022-11-01T21:59:25.374Z,20.78
2022-11-01T22:00:27.324Z,22.90
2022-11-01T22:01:31.971Z,26.56
2022-11-01T22:02:34.311Z,21.80
2022-11-01T22:03:36.194Z,20.80
2022-11-01T22:04:38.227Z,24.78
2022-11-01T22:05:40.571Z,27.50
2022-11-01T22:06:43.208Z,26.40
2022-11-01T22:07:45.122Z,24.60
2022-11-01T22:08:46.943Z,25.78
2022-11-01T22:09:49.055Z,31.90
2022-11-01T22:10:51.328Z,33.30
2022-11-01T22:11:53.502Z,28.67
2022-11-01T22:12:55.500Z,28.40
2022-11-01T22:13:57.991Z,27.11
2022-11-01T22:14:59.845Z,24.70
2022-11-01T22:16:01.790Z,25.78
2022-11-01T22:17:03.636Z,29.11
2022-11-01T22:18:06.037Z,29.11
2022-11-01T22:19:08.550Z,24.00
2022-11-01T22:20:11.789Z,26.50
2022-11-01T22:21:13.791Z,23.20
2022-11-01T22:22:16.533Z,27.40
2022-11-01T22:23:18.477Z,27.40
2022-11-01T22:24:20.462Z,35.44
2022-11-01T22:25:22.751Z,25.60
2022-11-01T22:26:25.457Z,27.10
2022-11-01T22:27:29.695Z,27.10
2022-11-01T22:28:31.501Z,25.90
2022-11-01T22:29:33.414Z,35.60
2022-11-01T22:30:35.152Z,27.89
2022-11-01T22:31:36.919Z,30.33
2022-11-01T22:32:38.726Z,26.22
2022-11-01T22:33:40.972Z,39.33
2022-11-01T22:34:45.668Z,25.30
2022-11-01T22:35:48.775Z,34.90
2022-11-01T22:36:50.812Z,27.00
2022-11-01T22:37:54.426Z,32.70
2022-11-01T22:38:58.612Z,29.60
2022-11-01T22:40:03.041Z,29.00
2022-11-01T22:41:17.766Z,23.30
2022-11-01T22:42:20.866Z,24.90
2022-11-01T22:43:23.732Z,29.27
2022-11-01T22:44:28.402Z,24.91
2022-11-01T22:45:32.934Z,25.60
2022-11-01T22:46:41.706Z,26.90
2022-11-01T22:47:45.557Z,26.90
2022-11-01T22:48:48.792Z,29.50
2022-11-01T22:49:53.454Z,26.60
2022-11-01T22:50:55.443Z,20.80
2022-11-01T22:52:06.420Z,29.20
2022-11-01T22:53:24.204Z,30.10
2022-11-01T22:54:43.104Z,26.90
2022-11-01T22:55:47.598Z,30.00
2022-11-01T22:57:07.861Z,28.90
2022-11-01T22:58:34.398Z,26.60
2022-11-01T23:01:12.817Z,28.30
2022-11-01T23:02:32.350Z,27.30
2022-11-01T23:03:43.016Z,29.00
2022-11-01T23:04:45.128Z,31.80
2022-11-01T23:05:51.195Z,31.22
2022-11-01T23:06:53.184Z,29.30
2022-11-01T23:07:58.204Z,35.33
2022-11-01T23:09:20.024Z,33.50
2022-11-01T23:10:26.206Z,26.80
2022-11-01T23:11:28.836Z,28.20
2022-11-01T23:12:33.354Z,27.70
2022-11-01T23:13:38.363Z,27.10
2022-11-01T23:14:42.707Z,29.80
2022-11-01T23:15:46.282Z,25.20
2022-11-01T23:16:50.285Z,21.40
2022-11-01T23:17:52.167Z,26.70
2022-11-01T23:18:58.385Z,26.67
2022-11-01T23:20:01.763Z,25.70
2022-11-01T23:21:08.190Z,29.20
2022-11-01T23:22:16.561Z,25.80
2022-11-01T23:23:19.634Z,28.90
2022-11-01T23:24:21.389Z,23.80
2022-11-01T23:25:25.071Z,24.00
2022-11-01T23:26:29.505Z,22.40
2022-11-01T23:27:31.470Z,23.20
2022-11-01T23:28:33.636Z,28.89
2022-11-01T23:29:37.985Z,26.40
2022-11-01T23:30:42.482Z,22.50
2022-11-01T23:31:44.814Z,25.50
2022-11-01T23:32:46.884Z,31.80
2022-11-01T23:33:50.013Z,25.33
2022-11-01T23:34:55.646Z,30.20
2022-11-01T23:35:59.845Z,28.20
2022-11-01T23:37:01.717Z,28.40
2022-11-01T23:38:09.922Z,30.78
2022-11-01T23:39:14.146Z,34.80
2022-11-01T23:40:20.839Z,28.00
2022-11-01T23:41:29.496Z,21.60
2022-11-01T23:42:31.701Z,20.70
2022-11-01T23:43:37.042Z,32.90
2022-11-01T23:44:40.427Z,31.10
2022-11-01T23:45:42.387Z,27.50
2022-11-01T23:46:44.613Z,29.10
2022-11-01T23:47:47.254Z,31.20
2022-11-01T23:48:51.561Z,25.30
2022-11-01T23:50:04.223Z,33.30
2022-11-01T23:51:09.778Z,34.50
2022-11-01T23:52:39.672Z,36.00
2022-11-01T23:53:44.362Z,25.00
2022-11-01T23:54:46.477Z,26.73
2022-11-01T23:55:53.074Z,30.50
2022-11-01T23:56:55.116Z,31.30
2022-11-01T23:58:02.554Z,28.78
2022-11-01T23:59:04.931Z,35.50
